sensor_id;sensor_type;location;lat;lon;timestamp;P1;durP1;ratioP1;P2;durP2;ratioP2
17570;SDS011;8903;52.220;20.978;2023-03-14T00:00:04;9.63;;;5.87;;
17570;SDS011;8903;52.220;20.978;2023-03-14T00:02:36;7.17;;;5.70;;
17570;SDS011;8903;52.220;20.978;2023-03-14T00:05:03;10.37;;;5.97;;
17570;SDS011;8903;52.220;20.978;2023-03-14T00:07:33;9.97;;;7.10;;
17570;SDS011;8903;52.220;20.978;2023-03-14T00:10:04;9.50;;;7.00;;
17570;SDS011;8903;52.220;20.978;2023-03-14T00:12:31;8.70;;;6.03;;
17570;SDS011;8903;52.220;20.978;2023-03-14T00:14:58;12.87;;;6.50;;
17570;SDS011;8903;52.220;20.978;2023-03-14T00:17:28;10.10;;;6.67;;
17570;SDS011;8903;52.220;20.978;2023-03-14T00:19:56;9.00;;;6.60;;
17570;SDS011;8903;52.220;20.978;2023-03-14T00:22:29;12.40;;;8.33;;
17570;SDS011;8903;52.220;20.978;2023-03-14T00:24:56;10.10;;;7.20;;
17570;SDS011;8903;52.220;20.978;2023-03-14T00:27:24;12.10;;;7.50;;
17570;SDS011;8903;52.220;20.978;2023-03-14T00:29:51;16.07;;;8.00;;
17570;SDS011;8903;52.220;20.978;2023-03-14T00:32:18;13.27;;;8.53;;
17570;SDS011;8903;52.220;20.978;2023-03-14T00:34:45;14.50;;;8.83;;
17570;SDS011;8903;52.220;20.978;2023-03-14T00:37:12;12.57;;;7.80;;
17570;SDS011;8903;52.220;20.978;2023-03-14T00:39:40;14.50;;;7.73;;
17570;SDS011;8903;52.220;20.978;2023-03-14T00:42:07;10.20;;;7.30;;
17570;SDS011;8903;52.220;20.978;2023-03-14T00:44:36;9.43;;;6.40;;
17570;SDS011;8903;52.220;20.978;2023-03-14T00:47:06;11.27;;;7.53;;
17570;SDS011;8903;52.220;20.978;2023-03-14T00:49:33;13.43;;;8.20;;
17570;SDS011;8903;52.220;20.978;2023-03-14T00:52:00;10.03;;;7.40;;
17570;SDS011;8903;52.220;20.978;2023-03-14T00:54:27;14.00;;;8.50;;
17570;SDS011;8903;52.220;20.978;2023-03-14T00:56:54;12.07;;;7.00;;
17570;SDS011;8903;52.220;20.978;2023-03-14T00:59:22;13.83;;;7.73;;
17570;SDS011;8903;52.220;20.978;2023-03-14T01:01:50;9.53;;;6.80;;
17570;SDS011;8903;52.220;20.978;2023-03-14T01:04:18;11.00;;;7.90;;
17570;SDS011;8903;52.220;20.978;2023-03-14T01:06:45;15.90;;;7.20;;
17570;SDS011;8903;52.220;20.978;2023-03-14T01:09:12;13.60;;;7.87;;
17570;SDS011;8903;52.220;20.978;2023-03-14T01:11:40;12.80;;;7.13;;
17570;SDS011;8903;52.220;20.978;2023-03-14T01:14:07;12.93;;;7.00;;
17570;SDS011;8903;52.220;20.978;2023-03-14T01:16:34;12.20;;;6.90;;
17570;SDS011;8903;52.220;20.978;2023-03-14T01:19:03;12.03;;;7.40;;
17570;SDS011;8903;52.220;20.978;2023-03-14T01:21:31;10.00;;;7.47;;
17570;SDS011;8903;52.220;20.978;2023-03-14T01:24:00;10.30;;;7.20;;
17570;SDS011;8903;52.220;20.978;2023-03-14T01:26:30;10.23;;;7.47;;
17570;SDS011;8903;52.220;20.978;2023-03-14T01:28:59;11.97;;;7.20;;
17570;SDS011;8903;52.220;20.978;2023-03-14T01:31:27;14.23;;;7.17;;
17570;SDS011;8903;52.220;20.978;2023-03-14T01:33:54;10.63;;;6.97;;
17570;SDS011;8903;52.220;20.978;2023-03-14T01:36:23;10.63;;;7.30;;
17570;SDS011;8903;52.220;20.978;2023-03-14T01:38:50;10.50;;;7.00;;
17570;SDS011;8903;52.220;20.978;2023-03-14T01:41:18;10.37;;;6.27;;
17570;SDS011;8903;52.220;20.978;2023-03-14T01:43:47;11.33;;;6.80;;
17570;SDS011;8903;52.220;20.978;2023-03-14T01:46:34;11.87;;;7.33;;
17570;SDS011;8903;52.220;20.978;2023-03-14T01:49:09;10.90;;;6.87;;
17570;SDS011;8903;52.220;20.978;2023-03-14T01:51:46;12.03;;;7.30;;
17570;SDS011;8903;52.220;20.978;2023-03-14T01:54:22;8.40;;;5.83;;
17570;SDS011;8903;52.220;20.978;2023-03-14T01:56:55;11.10;;;6.60;;
17570;SDS011;8903;52.220;20.978;2023-03-14T01:59:26;11.23;;;6.90;;
17570;SDS011;8903;52.220;20.978;2023-03-14T02:01:56;12.07;;;6.83;;
17570;SDS011;8903;52.220;20.978;2023-03-14T02:04:24;9.13;;;6.90;;
17570;SDS011;8903;52.220;20.978;2023-03-14T02:06:59;10.53;;;7.27;;
17570;SDS011;8903;52.220;20.978;2023-03-14T02:09:34;7.03;;;6.20;;
17570;SDS011;8903;52.220;20.978;2023-03-14T02:12:02;9.80;;;6.10;;
17570;SDS011;8903;52.220;20.978;2023-03-14T02:14:44;8.47;;;7.30;;
17570;SDS011;8903;52.220;20.978;2023-03-14T02:17:36;9.73;;;7.23;;
17570;SDS011;8903;52.220;20.978;2023-03-14T02:20:19;10.30;;;6.50;;
17570;SDS011;8903;52.220;20.978;2023-03-14T02:22:57;9.47;;;6.50;;
17570;SDS011;8903;52.220;20.978;2023-03-14T02:25:29;13.10;;;6.80;;
17570;SDS011;8903;52.220;20.978;2023-03-14T02:28:06;10.53;;;7.13;;
17570;SDS011;8903;52.220;20.978;2023-03-14T02:30:35;10.40;;;7.10;;
17570;SDS011;8903;52.220;20.978;2023-03-14T02:33:04;8.23;;;6.33;;
17570;SDS011;8903;52.220;20.978;2023-03-14T02:35:35;13.03;;;6.17;;
17570;SDS011;8903;52.220;20.978;2023-03-14T02:38:05;7.80;;;6.47;;
17570;SDS011;8903;52.220;20.978;2023-03-14T02:40:40;10.90;;;9.77;;
17570;SDS011;8903;52.220;20.978;2023-03-14T02:43:08;10.20;;;6.80;;
17570;SDS011;8903;52.220;20.978;2023-03-14T02:45:39;9.00;;;6.47;;
17570;SDS011;8903;52.220;20.978;2023-03-14T02:48:12;8.73;;;6.30;;
17570;SDS011;8903;52.220;20.978;2023-03-14T02:50:43;6.80;;;5.80;;
17570;SDS011;8903;52.220;20.978;2023-03-14T02:53:12;10.57;;;6.63;;
17570;SDS011;8903;52.220;20.978;2023-03-14T02:55:44;9.10;;;5.87;;
17570;SDS011;8903;52.220;20.978;2023-03-14T02:58:16;8.27;;;5.60;;
17570;SDS011;8903;52.220;20.978;2023-03-14T03:00:46;9.20;;;5.30;;
17570;SDS011;8903;52.220;20.978;2023-03-14T03:03:13;10.37;;;7.20;;
17570;SDS011;8903;52.220;20.978;2023-03-14T03:05:41;10.60;;;6.33;;
17570;SDS011;8903;52.220;20.978;2023-03-14T03:08:09;7.97;;;5.43;;
17570;SDS011;8903;52.220;20.978;2023-03-14T03:10:37;10.97;;;6.50;;
17570;SDS011;8903;52.220;20.978;2023-03-14T03:13:05;19.40;;;6.43;;
17570;SDS011;8903;52.220;20.978;2023-03-14T03:15:34;6.60;;;5.60;;
17570;SDS011;8903;52.220;20.978;2023-03-14T03:18:01;9.33;;;5.80;;
17570;SDS011;8903;52.220;20.978;2023-03-14T03:20:28;7.77;;;5.60;;
17570;SDS011;8903;52.220;20.978;2023-03-14T03:22:55;7.30;;;5.60;;
17570;SDS011;8903;52.220;20.978;2023-03-14T03:25:22;8.43;;;5.63;;
17570;SDS011;8903;52.220;20.978;2023-03-14T03:27:49;7.27;;;5.60;;
17570;SDS011;8903;52.220;20.978;2023-03-14T03:30:17;11.53;;;5.87;;
17570;SDS011;8903;52.220;20.978;2023-03-14T03:32:47;6.00;;;5.10;;
17570;SDS011;8903;52.220;20.978;2023-03-14T03:35:14;9.10;;;6.10;;
17570;SDS011;8903;52.220;20.978;2023-03-14T03:37:41;6.00;;;5.00;;
17570;SDS011;8903;52.220;20.978;2023-03-14T03:40:09;8.17;;;5.40;;
17570;SDS011;8903;52.220;20.978;2023-03-14T03:42:37;6.30;;;5.70;;
17570;SDS011;8903;52.220;20.978;2023-03-14T03:45:07;7.03;;;5.13;;
17570;SDS011;8903;52.220;20.978;2023-03-14T03:47:41;7.20;;;5.10;;
17570;SDS011;8903;52.220;20.978;2023-03-14T03:50:10;6.90;;;5.70;;
17570;SDS011;8903;52.220;20.978;2023-03-14T03:52:37;9.30;;;5.40;;
17570;SDS011;8903;52.220;20.978;2023-03-14T03:55:05;6.03;;;4.53;;
17570;SDS011;8903;52.220;20.978;2023-03-14T03:57:32;6.37;;;4.63;;
17570;SDS011;8903;52.220;20.978;2023-03-14T03:59:59;7.23;;;5.87;;
17570;SDS011;8903;52.220;20.978;2023-03-14T04:02:26;17.23;;;5.50;;
17570;SDS011;8903;52.220;20.978;2023-03-14T04:04:54;8.40;;;4.77;;
17570;SDS011;8903;52.220;20.978;2023-03-14T04:07:23;7.20;;;6.00;;
17570;SDS011;8903;52.220;20.978;2023-03-14T04:09:50;6.27;;;4.97;;
17570;SDS011;8903;52.220;20.978;2023-03-14T04:12:36;5.27;;;4.73;;
17570;SDS011;8903;52.220;20.978;2023-03-14T04:15:08;6.97;;;5.17;;
17570;SDS011;8903;52.220;20.978;2023-03-14T04:17:39;7.83;;;5.40;;
17570;SDS011;8903;52.220;20.978;2023-03-14T04:20:07;5.77;;;4.60;;
17570;SDS011;8903;52.220;20.978;2023-03-14T04:22:38;9.40;;;4.80;;
17570;SDS011;8903;52.220;20.978;2023-03-14T04:25:06;10.93;;;4.90;;
17570;SDS011;8903;52.220;20.978;2023-03-14T04:27:39;7.13;;;4.57;;
17570;SDS011;8903;52.220;20.978;2023-03-14T04:30:15;6.50;;;4.80;;
17570;SDS011;8903;52.220;20.978;2023-03-14T04:32:50;11.63;;;5.50;;
17570;SDS011;8903;52.220;20.978;2023-03-14T04:35:18;7.40;;;4.80;;
17570;SDS011;8903;52.220;20.978;2023-03-14T04:37:47;8.63;;;4.87;;
17570;SDS011;8903;52.220;20.978;2023-03-14T04:40:18;8.40;;;5.10;;
17570;SDS011;8903;52.220;20.978;2023-03-14T04:42:47;9.93;;;6.63;;
17570;SDS011;8903;52.220;20.978;2023-03-14T04:45:14;10.90;;;5.23;;
17570;SDS011;8903;52.220;20.978;2023-03-14T04:47:42;6.03;;;4.83;;
17570;SDS011;8903;52.220;20.978;2023-03-14T04:50:13;7.07;;;4.30;;
17570;SDS011;8903;52.220;20.978;2023-03-14T04:52:41;9.13;;;4.70;;
17570;SDS011;8903;52.220;20.978;2023-03-14T04:55:10;4.90;;;4.10;;
17570;SDS011;8903;52.220;20.978;2023-03-14T04:57:37;8.43;;;4.63;;
17570;SDS011;8903;52.220;20.978;2023-03-14T05:00:07;6.77;;;4.90;;
17570;SDS011;8903;52.220;20.978;2023-03-14T05:02:54;5.13;;;4.10;;
17570;SDS011;8903;52.220;20.978;2023-03-14T05:05:42;11.57;;;5.13;;
17570;SDS011;8903;52.220;20.978;2023-03-14T05:08:31;7.87;;;4.60;;
17570;SDS011;8903;52.220;20.978;2023-03-14T05:11:13;5.77;;;5.20;;
17570;SDS011;8903;52.220;20.978;2023-03-14T05:13:50;5.40;;;4.60;;
17570;SDS011;8903;52.220;20.978;2023-03-14T05:16:40;5.17;;;3.70;;
17570;SDS011;8903;52.220;20.978;2023-03-14T05:19:27;4.97;;;3.80;;
17570;SDS011;8903;52.220;20.978;2023-03-14T05:22:11;7.03;;;4.63;;
17570;SDS011;8903;52.220;20.978;2023-03-14T05:24:50;7.20;;;4.50;;
17570;SDS011;8903;52.220;20.978;2023-03-14T05:27:43;7.07;;;4.70;;
17570;SDS011;8903;52.220;20.978;2023-03-14T05:30:45;7.43;;;4.93;;
17570;SDS011;8903;52.220;20.978;2023-03-14T05:33:41;7.90;;;5.60;;
17570;SDS011;8903;52.220;20.978;2023-03-14T05:36:28;5.40;;;4.67;;
17570;SDS011;8903;52.220;20.978;2023-03-14T05:39:09;7.33;;;4.80;;
17570;SDS011;8903;52.220;20.978;2023-03-14T05:41:36;6.83;;;4.83;;
17570;SDS011;8903;52.220;20.978;2023-03-14T05:44:37;4.63;;;3.97;;
17570;SDS011;8903;52.220;20.978;2023-03-14T05:47:17;7.80;;;5.50;;
17570;SDS011;8903;52.220;20.978;2023-03-14T05:49:59;6.60;;;4.40;;
17570;SDS011;8903;52.220;20.978;2023-03-14T05:52:34;4.87;;;3.67;;
17570;SDS011;8903;52.220;20.978;2023-03-14T05:55:20;6.20;;;4.77;;
17570;SDS011;8903;52.220;20.978;2023-03-14T05:58:05;6.93;;;4.90;;
17570;SDS011;8903;52.220;20.978;2023-03-14T06:00:54;5.17;;;3.97;;
17570;SDS011;8903;52.220;20.978;2023-03-14T06:03:39;9.10;;;5.37;;
17570;SDS011;8903;52.220;20.978;2023-03-14T06:06:07;6.73;;;4.73;;
17570;SDS011;8903;52.220;20.978;2023-03-14T06:08:35;6.73;;;4.97;;
17570;SDS011;8903;52.220;20.978;2023-03-14T06:11:03;8.33;;;4.07;;
17570;SDS011;8903;52.220;20.978;2023-03-14T06:13:30;11.37;;;4.60;;
17570;SDS011;8903;52.220;20.978;2023-03-14T06:15:59;6.53;;;4.10;;
17570;SDS011;8903;52.220;20.978;2023-03-14T06:18:26;6.77;;;4.40;;
17570;SDS011;8903;52.220;20.978;2023-03-14T06:20:55;6.87;;;4.80;;
17570;SDS011;8903;52.220;20.978;2023-03-14T06:23:25;7.80;;;4.83;;
17570;SDS011;8903;52.220;20.978;2023-03-14T06:25:53;6.07;;;4.47;;
17570;SDS011;8903;52.220;20.978;2023-03-14T06:28:23;7.23;;;4.30;;
17570;SDS011;8903;52.220;20.978;2023-03-14T06:30:50;6.53;;;4.07;;
17570;SDS011;8903;52.220;20.978;2023-03-14T06:33:18;7.50;;;4.77;;
17570;SDS011;8903;52.220;20.978;2023-03-14T06:35:45;8.10;;;4.50;;
17570;SDS011;8903;52.220;20.978;2023-03-14T06:38:12;9.17;;;4.60;;
17570;SDS011;8903;52.220;20.978;2023-03-14T06:40:40;11.00;;;4.50;;
17570;SDS011;8903;52.220;20.978;2023-03-14T06:43:11;7.30;;;4.80;;
17570;SDS011;8903;52.220;20.978;2023-03-14T06:45:41;6.03;;;3.43;;
17570;SDS011;8903;52.220;20.978;2023-03-14T06:48:08;8.47;;;5.07;;
17570;SDS011;8903;52.220;20.978;2023-03-14T06:50:41;7.27;;;4.37;;
17570;SDS011;8903;52.220;20.978;2023-03-14T06:53:08;6.17;;;4.80;;
17570;SDS011;8903;52.220;20.978;2023-03-14T06:55:38;6.57;;;4.23;;
17570;SDS011;8903;52.220;20.978;2023-03-14T06:58:06;5.83;;;4.40;;
17570;SDS011;8903;52.220;20.978;2023-03-14T07:00:39;6.67;;;4.60;;
17570;SDS011;8903;52.220;20.978;2023-03-14T07:03:06;10.40;;;6.07;;
17570;SDS011;8903;52.220;20.978;2023-03-14T07:05:37;6.03;;;4.57;;
17570;SDS011;8903;52.220;20.978;2023-03-14T07:08:07;4.50;;;3.57;;
17570;SDS011;8903;52.220;20.978;2023-03-14T07:10:34;4.90;;;4.40;;
17570;SDS011;8903;52.220;20.978;2023-03-14T07:13:01;5.50;;;4.57;;
17570;SDS011;8903;52.220;20.978;2023-03-14T07:15:33;6.37;;;4.03;;
17570;SDS011;8903;52.220;20.978;2023-03-14T07:18:05;6.20;;;4.80;;
17570;SDS011;8903;52.220;20.978;2023-03-14T07:20:32;6.90;;;4.50;;
17570;SDS011;8903;52.220;20.978;2023-03-14T07:23:00;6.27;;;4.80;;
17570;SDS011;8903;52.220;20.978;2023-03-14T07:25:40;5.40;;;4.03;;
17570;SDS011;8903;52.220;20.978;2023-03-14T07:28:08;6.77;;;3.60;;
17570;SDS011;8903;52.220;20.978;2023-03-14T07:30:37;5.17;;;3.80;;
17570;SDS011;8903;52.220;20.978;2023-03-14T07:33:13;6.97;;;4.03;;
17570;SDS011;8903;52.220;20.978;2023-03-14T07:35:40;10.63;;;4.50;;
17570;SDS011;8903;52.220;20.978;2023-03-14T07:38:07;4.87;;;4.37;;
17570;SDS011;8903;52.220;20.978;2023-03-14T07:40:42;6.23;;;4.27;;
17570;SDS011;8903;52.220;20.978;2023-03-14T07:43:09;8.77;;;4.67;;
17570;SDS011;8903;52.220;20.978;2023-03-14T07:45:41;9.53;;;5.77;;
17570;SDS011;8903;52.220;20.978;2023-03-14T07:48:11;5.00;;;3.57;;
17570;SDS011;8903;52.220;20.978;2023-03-14T07:50:38;6.83;;;4.50;;
17570;SDS011;8903;52.220;20.978;2023-03-14T07:53:05;5.37;;;3.53;;
17570;SDS011;8903;52.220;20.978;2023-03-14T07:55:32;8.77;;;4.00;;
17570;SDS011;8903;52.220;20.978;2023-03-14T07:58:00;5.43;;;4.93;;
17570;SDS011;8903;52.220;20.978;2023-03-14T08:00:28;6.17;;;4.40;;
17570;SDS011;8903;52.220;20.978;2023-03-14T08:02:55;7.33;;;4.60;;
17570;SDS011;8903;52.220;20.978;2023-03-14T08:05:22;8.30;;;5.60;;
17570;SDS011;8903;52.220;20.978;2023-03-14T08:07:49;4.27;;;3.60;;
17570;SDS011;8903;52.220;20.978;2023-03-14T08:10:16;7.13;;;4.60;;
17570;SDS011;8903;52.220;20.978;2023-03-14T08:12:47;8.70;;;3.90;;
17570;SDS011;8903;52.220;20.978;2023-03-14T08:15:16;5.67;;;4.57;;
17570;SDS011;8903;52.220;20.978;2023-03-14T08:17:43;7.30;;;4.07;;
17570;SDS011;8903;52.220;20.978;2023-03-14T08:20:11;6.33;;;3.73;;
17570;SDS011;8903;52.220;20.978;2023-03-14T08:22:38;5.87;;;4.17;;
17570;SDS011;8903;52.220;20.978;2023-03-14T08:25:05;5.90;;;3.87;;
17570;SDS011;8903;52.220;20.978;2023-03-14T08:27:32;6.53;;;3.93;;
17570;SDS011;8903;52.220;20.978;2023-03-14T08:30:00;6.90;;;3.90;;
17570;SDS011;8903;52.220;20.978;2023-03-14T08:32:29;4.20;;;3.47;;
17570;SDS011;8903;52.220;20.978;2023-03-14T08:34:57;5.83;;;4.30;;
17570;SDS011;8903;52.220;20.978;2023-03-14T08:37:24;6.60;;;4.10;;
17570;SDS011;8903;52.220;20.978;2023-03-14T08:39:51;6.67;;;4.83;;
17570;SDS011;8903;52.220;20.978;2023-03-14T08:42:18;8.40;;;4.50;;
17570;SDS011;8903;52.220;20.978;2023-03-14T08:44:45;7.90;;;4.33;;
17570;SDS011;8903;52.220;20.978;2023-03-14T08:47:12;7.90;;;4.43;;
17570;SDS011;8903;52.220;20.978;2023-03-14T08:49:41;8.03;;;3.77;;
17570;SDS011;8903;52.220;20.978;2023-03-14T08:52:08;10.33;;;4.57;;
17570;SDS011;8903;52.220;20.978;2023-03-14T08:54:35;5.67;;;4.27;;
17570;SDS011;8903;52.220;20.978;2023-03-14T08:57:02;5.67;;;4.17;;
17570;SDS011;8903;52.220;20.978;2023-03-14T08:59:29;8.53;;;4.70;;
17570;SDS011;8903;52.220;20.978;2023-03-14T09:01:56;8.33;;;4.90;;
17570;SDS011;8903;52.220;20.978;2023-03-14T09:04:23;8.37;;;4.10;;
17570;SDS011;8903;52.220;20.978;2023-03-14T09:06:51;7.03;;;4.07;;
17570;SDS011;8903;52.220;20.978;2023-03-14T09:09:18;7.77;;;3.63;;
17570;SDS011;8903;52.220;20.978;2023-03-14T09:11:45;4.70;;;3.23;;
17570;SDS011;8903;52.220;20.978;2023-03-14T09:14:12;7.90;;;4.53;;
17570;SDS011;8903;52.220;20.978;2023-03-14T09:16:40;6.23;;;4.00;;
17570;SDS011;8903;52.220;20.978;2023-03-14T09:19:07;7.83;;;4.87;;
17570;SDS011;8903;52.220;20.978;2023-03-14T09:21:34;4.90;;;4.37;;
17570;SDS011;8903;52.220;20.978;2023-03-14T09:24:02;15.67;;;5.00;;
17570;SDS011;8903;52.220;20.978;2023-03-14T09:26:30;5.90;;;3.70;;
17570;SDS011;8903;52.220;20.978;2023-03-14T09:28:57;5.30;;;3.67;;
17570;SDS011;8903;52.220;20.978;2023-03-14T09:31:24;6.80;;;3.60;;
17570;SDS011;8903;52.220;20.978;2023-03-14T09:33:52;3.83;;;3.20;;
17570;SDS011;8903;52.220;20.978;2023-03-14T09:36:19;7.60;;;3.90;;
17570;SDS011;8903;52.220;20.978;2023-03-14T09:38:46;8.10;;;3.20;;
17570;SDS011;8903;52.220;20.978;2023-03-14T09:41:16;5.33;;;3.33;;
17570;SDS011;8903;52.220;20.978;2023-03-14T09:43:47;5.40;;;3.70;;
17570;SDS011;8903;52.220;20.978;2023-03-14T09:46:16;4.70;;;3.33;;
17570;SDS011;8903;52.220;20.978;2023-03-14T09:48:44;5.50;;;4.03;;
17570;SDS011;8903;52.220;20.978;2023-03-14T09:51:12;7.13;;;4.17;;
17570;SDS011;8903;52.220;20.978;2023-03-14T09:53:42;8.13;;;3.83;;
17570;SDS011;8903;52.220;20.978;2023-03-14T09:56:12;3.90;;;3.30;;
17570;SDS011;8903;52.220;20.978;2023-03-14T09:58:44;5.03;;;3.20;;
17570;SDS011;8903;52.220;20.978;2023-03-14T10:01:15;5.43;;;3.43;;
17570;SDS011;8903;52.220;20.978;2023-03-14T10:03:45;8.40;;;3.00;;
17570;SDS011;8903;52.220;20.978;2023-03-14T10:06:14;6.17;;;3.43;;
17570;SDS011;8903;52.220;20.978;2023-03-14T10:08:42;8.60;;;4.30;;
17570;SDS011;8903;52.220;20.978;2023-03-14T10:11:12;5.80;;;3.40;;
17570;SDS011;8903;52.220;20.978;2023-03-14T10:13:50;7.77;;;3.83;;
17570;SDS011;8903;52.220;20.978;2023-03-14T10:16:29;7.20;;;3.53;;
17570;SDS011;8903;52.220;20.978;2023-03-14T10:19:02;6.77;;;3.30;;
17570;SDS011;8903;52.220;20.978;2023-03-14T10:21:31;5.03;;;3.50;;
17570;SDS011;8903;52.220;20.978;2023-03-14T10:24:18;5.40;;;3.43;;
17570;SDS011;8903;52.220;20.978;2023-03-14T10:26:48;6.27;;;3.60;;
17570;SDS011;8903;52.220;20.978;2023-03-14T10:29:17;4.90;;;3.07;;
17570;SDS011;8903;52.220;20.978;2023-03-14T10:31:48;4.63;;;3.33;;
17570;SDS011;8903;52.220;20.978;2023-03-14T10:34:21;12.33;;;3.70;;
17570;SDS011;8903;52.220;20.978;2023-03-14T10:36:54;6.13;;;3.97;;
17570;SDS011;8903;52.220;20.978;2023-03-14T10:39:34;9.47;;;3.43;;
17570;SDS011;8903;52.220;20.978;2023-03-14T10:42:12;6.60;;;3.87;;
17570;SDS011;8903;52.220;20.978;2023-03-14T10:44:44;4.90;;;3.03;;
17570;SDS011;8903;52.220;20.978;2023-03-14T10:47:17;3.83;;;3.30;;
17570;SDS011;8903;52.220;20.978;2023-03-14T10:49:46;6.60;;;3.80;;
17570;SDS011;8903;52.220;20.978;2023-03-14T10:52:15;6.10;;;3.77;;
17570;SDS011;8903;52.220;20.978;2023-03-14T10:54:48;6.20;;;3.30;;
17570;SDS011;8903;52.220;20.978;2023-03-14T10:57:21;9.07;;;3.77;;
17570;SDS011;8903;52.220;20.978;2023-03-14T10:59:49;6.03;;;3.70;;
17570;SDS011;8903;52.220;20.978;2023-03-14T11:02:28;5.03;;;3.40;;
17570;SDS011;8903;52.220;20.978;2023-03-14T11:05:10;5.03;;;3.60;;
17570;SDS011;8903;52.220;20.978;2023-03-14T11:07:45;11.40;;;4.27;;
17570;SDS011;8903;52.220;20.978;2023-03-14T11:10:14;6.10;;;3.80;;
17570;SDS011;8903;52.220;20.978;2023-03-14T11:12:52;5.77;;;3.53;;
17570;SDS011;8903;52.220;20.978;2023-03-14T11:15:34;4.77;;;2.93;;
17570;SDS011;8903;52.220;20.978;2023-03-14T11:18:20;5.13;;;3.90;;
17570;SDS011;8903;52.220;20.978;2023-03-14T11:21:08;4.77;;;4.27;;
17570;SDS011;8903;52.220;20.978;2023-03-14T11:23:41;5.60;;;4.00;;
17570;SDS011;8903;52.220;20.978;2023-03-14T11:26:19;5.20;;;3.70;;
17570;SDS011;8903;52.220;20.978;2023-03-14T11:28:55;5.67;;;3.87;;
17570;SDS011;8903;52.220;20.978;2023-03-14T11:31:26;10.70;;;4.10;;
17570;SDS011;8903;52.220;20.978;2023-03-14T11:33:56;4.87;;;3.80;;
17570;SDS011;8903;52.220;20.978;2023-03-14T11:36:27;7.13;;;3.97;;
17570;SDS011;8903;52.220;20.978;2023-03-14T11:38:59;5.70;;;3.53;;
17570;SDS011;8903;52.220;20.978;2023-03-14T11:41:27;9.83;;;4.77;;
17570;SDS011;8903;52.220;20.978;2023-03-14T11:43:59;5.27;;;3.97;;
17570;SDS011;8903;52.220;20.978;2023-03-14T11:46:31;7.70;;;4.53;;
17570;SDS011;8903;52.220;20.978;2023-03-14T11:49:03;14.20;;;3.80;;
17570;SDS011;8903;52.220;20.978;2023-03-14T11:51:38;6.80;;;3.70;;
17570;SDS011;8903;52.220;20.978;2023-03-14T11:54:11;6.93;;;4.57;;
17570;SDS011;8903;52.220;20.978;2023-03-14T11:56:45;13.80;;;5.00;;
17570;SDS011;8903;52.220;20.978;2023-03-14T11:59:18;6.83;;;4.40;;
17570;SDS011;8903;52.220;20.978;2023-03-14T12:01:53;7.53;;;4.30;;
17570;SDS011;8903;52.220;20.978;2023-03-14T12:07:20;10.00;;;4.63;;
17570;SDS011;8903;52.220;20.978;2023-03-14T12:09:53;12.03;;;4.00;;
17570;SDS011;8903;52.220;20.978;2023-03-14T12:12:21;7.37;;;4.20;;
17570;SDS011;8903;52.220;20.978;2023-03-14T12:14:53;11.40;;;5.00;;
17570;SDS011;8903;52.220;20.978;2023-03-14T12:17:24;10.73;;;4.40;;
17570;SDS011;8903;52.220;20.978;2023-03-14T12:20:00;11.27;;;4.40;;
17570;SDS011;8903;52.220;20.978;2023-03-14T12:22:32;8.77;;;4.90;;
17570;SDS011;8903;52.220;20.978;2023-03-14T12:25:05;6.00;;;3.70;;
17570;SDS011;8903;52.220;20.978;2023-03-14T12:27:48;4.93;;;4.30;;
17570;SDS011;8903;52.220;20.978;2023-03-14T12:30:31;7.43;;;4.50;;
17570;SDS011;8903;52.220;20.978;2023-03-14T12:33:27;6.37;;;4.73;;
17570;SDS011;8903;52.220;20.978;2023-03-14T12:39:04;6.33;;;4.20;;
17570;SDS011;8903;52.220;20.978;2023-03-14T12:41:46;12.70;;;5.03;;
17570;SDS011;8903;52.220;20.978;2023-03-14T12:50:18;8.17;;;5.20;;
17570;SDS011;8903;52.220;20.978;2023-03-14T12:52:57;8.17;;;5.50;;
17570;SDS011;8903;52.220;20.978;2023-03-14T12:55:35;8.73;;;5.03;;
17570;SDS011;8903;52.220;20.978;2023-03-14T12:58:07;7.13;;;5.27;;
17570;SDS011;8903;52.220;20.978;2023-03-14T13:00:39;9.67;;;5.13;;
17570;SDS011;8903;52.220;20.978;2023-03-14T13:03:17;6.77;;;4.53;;
17570;SDS011;8903;52.220;20.978;2023-03-14T13:05:56;9.40;;;5.63;;
17570;SDS011;8903;52.220;20.978;2023-03-14T13:08:35;12.67;;;6.37;;
17570;SDS011;8903;52.220;20.978;2023-03-14T13:11:05;6.23;;;5.27;;
17570;SDS011;8903;52.220;20.978;2023-03-14T13:13:35;10.07;;;5.37;;
17570;SDS011;8903;52.220;20.978;2023-03-14T13:16:09;10.47;;;5.40;;
17570;SDS011;8903;52.220;20.978;2023-03-14T13:18:42;8.60;;;5.67;;
17570;SDS011;8903;52.220;20.978;2023-03-14T13:21:13;9.53;;;6.53;;
17570;SDS011;8903;52.220;20.978;2023-03-14T13:23:53;11.60;;;6.57;;
17570;SDS011;8903;52.220;20.978;2023-03-14T13:26:23;15.50;;;9.90;;
17570;SDS011;8903;52.220;20.978;2023-03-14T13:28:53;10.00;;;7.23;;
17570;SDS011;8903;52.220;20.978;2023-03-14T13:31:21;12.73;;;7.13;;
17570;SDS011;8903;52.220;20.978;2023-03-14T13:33:59;13.30;;;9.20;;
17570;SDS011;8903;52.220;20.978;2023-03-14T13:36:28;10.60;;;7.70;;
17570;SDS011;8903;52.220;20.978;2023-03-14T13:38:55;6.40;;;5.80;;
17570;SDS011;8903;52.220;20.978;2023-03-14T13:41:23;17.47;;;9.00;;
17570;SDS011;8903;52.220;20.978;2023-03-14T13:43:51;19.00;;;11.00;;
17570;SDS011;8903;52.220;20.978;2023-03-14T13:46:24;10.40;;;7.40;;
17570;SDS011;8903;52.220;20.978;2023-03-14T13:48:52;9.93;;;6.97;;
17570;SDS011;8903;52.220;20.978;2023-03-14T13:51:22;8.70;;;7.00;;
17570;SDS011;8903;52.220;20.978;2023-03-14T13:53:52;11.87;;;8.93;;
17570;SDS011;8903;52.220;20.978;2023-03-14T13:56:20;9.83;;;7.50;;
17570;SDS011;8903;52.220;20.978;2023-03-14T13:58:49;13.50;;;7.53;;
17570;SDS011;8903;52.220;20.978;2023-03-14T14:01:18;14.67;;;10.33;;
17570;SDS011;8903;52.220;20.978;2023-03-14T14:03:47;11.60;;;8.00;;
17570;SDS011;8903;52.220;20.978;2023-03-14T14:06:19;13.30;;;8.80;;
17570;SDS011;8903;52.220;20.978;2023-03-14T14:08:54;23.07;;;10.50;;
17570;SDS011;8903;52.220;20.978;2023-03-14T14:11:24;13.90;;;9.07;;
17570;SDS011;8903;52.220;20.978;2023-03-14T14:14:01;10.90;;;8.87;;
17570;SDS011;8903;52.220;20.978;2023-03-14T14:16:29;10.87;;;7.73;;
17570;SDS011;8903;52.220;20.978;2023-03-14T14:18:57;11.60;;;7.80;;
17570;SDS011;8903;52.220;20.978;2023-03-14T14:21:26;14.27;;;9.70;;
17570;SDS011;8903;52.220;20.978;2023-03-14T14:23:55;10.23;;;6.80;;
17570;SDS011;8903;52.220;20.978;2023-03-14T14:26:22;10.17;;;7.63;;
17570;SDS011;8903;52.220;20.978;2023-03-14T14:28:57;16.60;;;10.67;;
17570;SDS011;8903;52.220;20.978;2023-03-14T14:31:26;10.87;;;8.23;;
17570;SDS011;8903;52.220;20.978;2023-03-14T14:33:54;12.20;;;7.10;;
17570;SDS011;8903;52.220;20.978;2023-03-14T14:36:24;8.70;;;7.00;;
17570;SDS011;8903;52.220;20.978;2023-03-14T14:38:58;10.07;;;6.97;;
17570;SDS011;8903;52.220;20.978;2023-03-14T14:41:27;9.17;;;6.33;;
17570;SDS011;8903;52.220;20.978;2023-03-14T14:43:56;11.03;;;7.37;;
17570;SDS011;8903;52.220;20.978;2023-03-14T14:46:25;12.30;;;9.70;;
17570;SDS011;8903;52.220;20.978;2023-03-14T14:48:54;10.40;;;7.23;;
17570;SDS011;8903;52.220;20.978;2023-03-14T14:51:24;10.83;;;7.83;;
17570;SDS011;8903;52.220;20.978;2023-03-14T14:54:03;9.60;;;7.53;;
17570;SDS011;8903;52.220;20.978;2023-03-14T14:56:35;12.17;;;8.23;;
17570;SDS011;8903;52.220;20.978;2023-03-14T14:59:04;9.50;;;7.13;;
17570;SDS011;8903;52.220;20.978;2023-03-14T15:01:43;6.40;;;5.70;;
17570;SDS011;8903;52.220;20.978;2023-03-14T15:04:13;8.67;;;6.10;;
17570;SDS011;8903;52.220;20.978;2023-03-14T15:06:42;16.87;;;6.90;;
17570;SDS011;8903;52.220;20.978;2023-03-14T15:09:13;9.63;;;7.57;;
17570;SDS011;8903;52.220;20.978;2023-03-14T15:11:41;16.13;;;8.10;;
17570;SDS011;8903;52.220;20.978;2023-03-14T15:14:09;14.57;;;7.50;;
17570;SDS011;8903;52.220;20.978;2023-03-14T15:16:36;9.63;;;7.20;;
17570;SDS011;8903;52.220;20.978;2023-03-14T15:19:08;10.40;;;7.00;;